createdAt,value
2016-12-04T00:00:34.866Z,0
2016-12-04T00:01:35.588Z,0
2016-12-04T00:02:34.824Z,0
2016-12-04T00:03:35.117Z,0
2016-12-04T00:04:35.399Z,0
2016-12-04T00:05:34.763Z,0
2016-12-04T00:06:34.782Z,0
2016-12-04T00:07:35.304Z,0
2016-12-04T00:08:34.701Z,0
2016-12-04T00:09:34.685Z,0
2016-12-04T00:10:34.947Z,0
2016-12-04T00:11:34.645Z,0
2016-12-04T00:12:34.619Z,0
2016-12-04T00:13:34.986Z,0
2016-12-04T00:14:34.581Z,0
2016-12-04T00:15:34.564Z,0
2016-12-04T00:16:35.080Z,0
2016-12-04T00:17:34.517Z,0
2016-12-04T00:18:34.533Z,0
2016-12-04T00:19:34.694Z,0
2016-12-04T00:20:34.467Z,0
2016-12-04T00:21:34.439Z,0
2016-12-04T00:22:34.817Z,0
2016-12-04T00:23:34.399Z,0
2016-12-04T00:24:34.377Z,0
2016-12-04T00:25:34.373Z,0
2016-12-04T00:26:34.339Z,0
2016-12-04T00:27:34.322Z,0
2016-12-04T00:28:34.540Z,0
2016-12-04T00:29:34.280Z,0
2016-12-04T00:30:34.253Z,0
2016-12-04T00:31:35.501Z,0
2016-12-04T00:32:34.216Z,0
2016-12-04T00:33:34.195Z,0
2016-12-04T00:34:35.153Z,0
2016-12-04T00:35:34.154Z,0
2016-12-04T00:36:34.138Z,0
2016-12-04T00:37:35.177Z,0
2016-12-04T00:38:34.091Z,0
2016-12-04T00:39:34.079Z,0
2016-12-04T00:40:34.853Z,0
2016-12-04T00:41:34.038Z,0
2016-12-04T00:42:34.023Z,0
2016-12-04T00:43:33.992Z,0
2016-12-04T00:44:35.073Z,0
2016-12-04T00:45:33.952Z,0
2016-12-04T00:46:33.936Z,0
2016-12-04T00:47:35.036Z,0
2016-12-04T00:48:33.898Z,0
2016-12-04T00:49:33.872Z,0
2016-12-04T00:50:34.629Z,0
2016-12-04T00:51:33.835Z,0
2016-12-04T00:52:33.809Z,0
2016-12-04T00:53:35.135Z,0
2016-12-04T00:54:33.773Z,0
2016-12-04T00:55:33.751Z,0
2016-12-04T00:56:34.523Z,0
2016-12-04T00:57:33.714Z,0
2016-12-04T00:58:34.009Z,0
2016-12-04T00:59:33.677Z,0
2016-12-04T01:00:33.649Z,0
2016-12-04T01:01:33.971Z,0
2016-12-04T01:02:33.613Z,0
2016-12-04T01:03:33.589Z,0
2016-12-04T01:04:33.886Z,0
2016-12-04T01:05:33.553Z,0
2016-12-04T01:06:33.530Z,0
2016-12-04T01:07:34.192Z,0
2016-12-04T01:08:33.489Z,0
2016-12-04T01:09:33.472Z,0
2016-12-04T01:10:33.630Z,0
2016-12-04T01:11:33.433Z,0
2016-12-04T01:12:34.053Z,0
2016-12-04T01:13:33.388Z,0
2016-12-04T01:14:33.365Z,0
2016-12-04T01:15:33.740Z,0
2016-12-04T01:16:33.322Z,0
2016-12-04T01:17:33.309Z,0
2016-12-04T01:18:33.289Z,0
2016-12-04T01:19:34.239Z,0
2016-12-04T01:20:33.247Z,0
2016-12-04T01:21:33.455Z,0
2016-12-04T01:22:33.207Z,0
2016-12-04T01:23:33.471Z,0
2016-12-04T01:24:33.169Z,0
2016-12-04T01:25:33.150Z,0
2016-12-04T01:26:33.364Z,0
2016-12-04T01:27:33.105Z,0
2016-12-04T01:28:33.085Z,0
2016-12-04T01:29:33.903Z,0
2016-12-04T01:30:33.044Z,0
2016-12-04T01:31:33.518Z,0
2016-12-04T01:32:33.004Z,0
2016-12-04T01:33:33.020Z,0
2016-12-04T01:34:33.208Z,0
2016-12-04T01:35:33.264Z,0
2016-12-04T01:36:32.919Z,0
2016-12-04T01:37:33.181Z,0
2016-12-04T01:38:32.881Z,0
2016-12-04T01:39:32.887Z,0
2016-12-04T01:40:33.730Z,0
2016-12-04T01:41:32.819Z,0
2016-12-04T01:42:32.799Z,0
2016-12-04T01:43:33.592Z,0
2016-12-04T01:44:32.756Z,0
2016-12-04T01:45:32.737Z,0
2016-12-04T01:46:32.720Z,0
2016-12-04T01:47:32.704Z,0
2016-12-04T01:48:33.285Z,0
2016-12-04T01:49:32.655Z,0
2016-12-04T01:50:32.632Z,0
2016-12-04T01:51:32.621Z,0
2016-12-04T01:52:32.599Z,0
2016-12-04T01:53:32.576Z,0
2016-12-04T01:54:33.378Z,0
2016-12-04T01:55:32.535Z,0
2016-12-04T01:56:32.516Z,0
2016-12-04T01:57:32.690Z,0
2016-12-04T01:58:32.475Z,0
2016-12-04T01:59:32.709Z,0
2016-12-04T02:00:32.747Z,0
2016-12-04T02:01:32.736Z,0
2016-12-04T02:02:32.396Z,0
2016-12-04T02:03:32.368Z,0
2016-12-04T02:04:33.223Z,0
2016-12-04T02:05:32.656Z,0
2016-12-04T02:06:32.313Z,0
2016-12-04T02:07:32.303Z,0
2016-12-04T02:08:32.279Z,0
2016-12-04T02:09:32.255Z,0
2016-12-04T02:10:32.354Z,0
2016-12-04T02:11:32.213Z,0
2016-12-04T02:12:32.222Z,0
2016-12-04T02:13:32.848Z,0
2016-12-04T02:14:32.163Z,0
2016-12-04T02:15:32.127Z,0
2016-12-04T02:16:32.114Z,0
2016-12-04T02:17:32.230Z,0
2016-12-04T02:18:32.071Z,0
2016-12-04T02:19:32.049Z,0
2016-12-04T02:20:32.831Z,0
2016-12-04T02:21:32.003Z,0
2016-12-04T02:22:32.001Z,0
2016-12-04T02:23:32.038Z,0
2016-12-04T02:24:31.949Z,0
2016-12-04T02:25:31.928Z,0
2016-12-04T02:26:31.972Z,0
2016-12-04T02:27:31.895Z,0
2016-12-04T02:28:31.888Z,0
2016-12-04T02:29:31.964Z,0
2016-12-04T02:30:31.817Z,0
2016-12-04T02:31:31.808Z,0
2016-12-04T02:32:31.779Z,0
2016-12-04T02:33:31.767Z,0
2016-12-04T02:34:32.054Z,0
2016-12-04T02:35:31.746Z,0
2016-12-04T02:36:31.703Z,0
2016-12-04T02:37:31.677Z,0
2016-12-04T02:38:31.668Z,0
2016-12-04T02:39:31.641Z,0
2016-12-04T02:40:31.622Z,0
2016-12-04T02:41:31.603Z,0
2016-12-04T02:42:31.613Z,0
2016-12-04T02:43:31.563Z,0
2016-12-04T02:44:31.538Z,0
2016-12-04T02:45:31.519Z,0
2016-12-04T02:46:31.504Z,0
2016-12-04T02:47:31.813Z,0
2016-12-04T02:48:31.453Z,0
2016-12-04T02:49:31.437Z,0
2016-12-04T02:50:31.419Z,0
2016-12-04T02:51:31.394Z,0
2016-12-04T02:52:31.376Z,0
2016-12-04T02:53:31.347Z,0
2016-12-04T02:54:31.328Z,0
2016-12-04T02:55:31.311Z,0
2016-12-04T02:56:31.286Z,0
2016-12-04T02:57:31.269Z,0
2016-12-04T02:58:31.248Z,0
2016-12-04T02:59:31.228Z,0
2016-12-04T03:00:31.204Z,0
2016-12-04T03:01:31.510Z,0
2016-12-04T03:02:31.161Z,0
2016-12-04T03:03:31.140Z,0
2016-12-04T03:04:31.122Z,0
2016-12-04T03:05:31.103Z,0
2016-12-04T03:06:31.084Z,0
2016-12-04T03:07:31.056Z,0
2016-12-04T03:08:31.039Z,0
2016-12-04T03:09:31.018Z,0
2016-12-04T03:10:31.002Z,0
2016-12-04T03:11:30.977Z,0
2016-12-04T03:12:30.959Z,0
2016-12-04T03:13:30.945Z,0
2016-12-04T03:14:30.919Z,0
2016-12-04T03:15:30.894Z,0
2016-12-04T03:16:30.871Z,0
2016-12-04T03:17:30.857Z,0
2016-12-04T03:18:30.841Z,0
2016-12-04T03:19:30.818Z,0
2016-12-04T03:20:30.795Z,0
2016-12-04T03:21:30.772Z,0
2016-12-04T03:22:30.752Z,0
2016-12-04T03:23:30.738Z,0
2016-12-04T03:24:30.712Z,0
2016-12-04T03:25:31.006Z,0
2016-12-04T03:26:30.672Z,0
2016-12-04T03:27:30.681Z,0
2016-12-04T03:28:30.659Z,0
2016-12-04T03:29:30.612Z,0
2016-12-04T03:30:30.589Z,0
2016-12-04T03:31:30.569Z,0
2016-12-04T03:32:30.548Z,0
2016-12-04T03:33:30.529Z,0
2016-12-04T03:34:30.508Z,0
2016-12-04T03:35:30.487Z,0
2016-12-04T03:36:30.465Z,0
2016-12-04T03:37:30.445Z,0
2016-12-04T03:38:30.421Z,0
2016-12-04T03:39:30.412Z,0
2016-12-04T03:40:30.382Z,0
2016-12-04T03:41:30.366Z,0
2016-12-04T03:42:30.338Z,0
2016-12-04T03:43:30.318Z,0
2016-12-04T03:44:30.300Z,0
2016-12-04T03:45:30.277Z,0
2016-12-04T03:46:30.261Z,0
2016-12-04T03:47:30.237Z,0
2016-12-04T03:48:30.219Z,0
2016-12-04T03:49:30.200Z,0
2016-12-04T03:50:30.179Z,0
2016-12-04T03:51:30.160Z,0
2016-12-04T03:52:30.134Z,0
2016-12-04T03:53:30.116Z,0
2016-12-04T03:54:30.093Z,0
2016-12-04T03:55:30.081Z,0
2016-12-04T03:56:30.055Z,0
2016-12-04T03:57:30.034Z,0
2016-12-04T03:58:30.015Z,0
2016-12-04T03:59:29.997Z,0
2016-12-04T04:00:29.980Z,0
2016-12-04T04:01:29.951Z,0
2016-12-04T04:02:29.931Z,0
2016-12-04T04:03:29.909Z,0
2016-12-04T04:04:30.209Z,0
2016-12-04T04:05:29.866Z,0
2016-12-04T04:06:29.850Z,0
2016-12-04T04:07:30.075Z,0
2016-12-04T04:08:29.823Z,0
2016-12-04T04:09:29.812Z,0
2016-12-04T04:10:29.765Z,0
2016-12-04T04:11:29.746Z,0
2016-12-04T04:12:29.728Z,0
2016-12-04T04:13:29.703Z,0
2016-12-04T04:14:30.315Z,0
2016-12-04T04:15:29.679Z,0
2016-12-04T04:16:29.643Z,0
2016-12-04T04:17:29.620Z,0
2016-12-04T04:18:29.605Z,0
2016-12-04T04:19:29.586Z,0
2016-12-04T04:20:29.563Z,0
2016-12-04T04:21:29.540Z,0
2016-12-04T04:22:29.522Z,0
2016-12-04T04:23:29.582Z,0
2016-12-04T04:24:29.488Z,0
2016-12-04T04:25:29.460Z,0
2016-12-04T04:26:29.441Z,0
2016-12-04T04:27:29.444Z,0
2016-12-04T04:28:29.397Z,0
2016-12-04T04:29:29.377Z,0
2016-12-04T04:30:29.358Z,0
2016-12-04T04:31:29.337Z,0
2016-12-04T04:32:29.317Z,0
2016-12-04T04:33:29.292Z,0
2016-12-04T04:34:29.283Z,0
2016-12-04T04:35:29.256Z,0
2016-12-04T04:36:29.248Z,0
2016-12-04T04:37:29.211Z,0
2016-12-04T04:38:29.196Z,0
2016-12-04T04:39:29.181Z,0
2016-12-04T04:40:29.157Z,0
2016-12-04T04:41:29.137Z,0
2016-12-04T04:42:29.115Z,0
2016-12-04T04:43:29.092Z,0
2016-12-04T04:44:29.070Z,0
2016-12-04T04:45:29.057Z,0
2016-12-04T04:46:29.351Z,0
2016-12-04T04:47:29.007Z,0
2016-12-04T04:48:29.053Z,0
2016-12-04T04:49:28.963Z,0
2016-12-04T04:50:28.948Z,0
2016-12-04T04:51:28.924Z,0
2016-12-04T04:52:28.909Z,0
2016-12-04T04:53:28.888Z,0
2016-12-04T04:54:28.863Z,0
2016-12-04T04:55:28.848Z,0
2016-12-04T04:56:28.824Z,0
2016-12-04T04:57:28.811Z,0
2016-12-04T04:58:28.785Z,0
2016-12-04T04:59:28.765Z,0
2016-12-04T05:00:28.742Z,0
2016-12-04T05:01:28.733Z,0
2016-12-04T05:02:28.698Z,0
2016-12-04T05:03:28.688Z,0
2016-12-04T05:04:28.656Z,0
2016-12-04T05:05:28.642Z,0
2016-12-04T05:06:28.625Z,0
2016-12-04T05:07:28.598Z,0
2016-12-04T05:08:28.912Z,0
2016-12-04T05:09:28.556Z,0
2016-12-04T05:10:28.540Z,0
2016-12-04T05:11:28.550Z,0
2016-12-04T05:12:28.500Z,0
2016-12-04T05:13:28.788Z,0
2016-12-04T05:14:28.456Z,0
2016-12-04T05:15:28.435Z,0
2016-12-04T05:16:28.415Z,0
2016-12-04T05:17:28.427Z,0
2016-12-04T05:18:28.380Z,0
2016-12-04T05:19:28.353Z,0
2016-12-04T05:20:28.330Z,0
2016-12-04T05:21:28.317Z,0
2016-12-04T05:22:28.284Z,0
2016-12-04T05:23:28.274Z,0
2016-12-04T05:24:28.246Z,0
2016-12-04T05:25:28.231Z,0
2016-12-04T05:26:28.209Z,0
2016-12-04T05:27:28.187Z,0
2016-12-04T05:28:28.168Z,0
2016-12-04T05:29:28.156Z,0
2016-12-04T05:30:28.127Z,0
2016-12-04T05:31:28.106Z,0
2016-12-04T05:32:28.084Z,0
2016-12-04T05:33:28.067Z,0
2016-12-04T05:34:28.048Z,0
2016-12-04T05:35:28.030Z,0
2016-12-04T05:36:28.321Z,0
2016-12-04T05:37:27.987Z,0
2016-12-04T05:38:27.981Z,0
2016-12-04T05:39:27.943Z,0
2016-12-04T05:40:27.918Z,0
2016-12-04T05:41:27.901Z,0
2016-12-04T05:42:27.877Z,0
2016-12-04T05:43:27.860Z,0
2016-12-04T05:44:27.841Z,0
2016-12-04T05:45:27.821Z,0
2016-12-04T05:46:27.798Z,0
2016-12-04T05:47:27.774Z,0
2016-12-04T05:48:27.758Z,0
2016-12-04T05:49:27.732Z,0
2016-12-04T05:50:27.716Z,0
2016-12-04T05:51:27.692Z,0
2016-12-04T05:52:27.675Z,0
2016-12-04T05:53:27.660Z,0
2016-12-04T05:54:27.632Z,0
2016-12-04T05:55:27.611Z,0
2016-12-04T05:56:27.594Z,0
2016-12-04T05:57:27.569Z,0
2016-12-04T05:58:27.552Z,0
2016-12-04T05:59:27.528Z,0
2016-12-04T06:00:27.507Z,0
2016-12-04T06:01:27.491Z,0
2016-12-04T06:02:27.467Z,0
2016-12-04T06:03:27.446Z,0
2016-12-04T06:04:27.428Z,0
2016-12-04T06:05:27.403Z,0
2016-12-04T06:06:27.397Z,0
2016-12-04T06:07:27.365Z,0
2016-12-04T06:08:27.347Z,0
2016-12-04T06:09:27.326Z,0
2016-12-04T06:10:27.307Z,0
2016-12-04T06:11:27.284Z,0
2016-12-04T06:12:27.264Z,0
2016-12-04T06:13:27.241Z,0
2016-12-04T06:14:27.221Z,0
2016-12-04T06:15:27.209Z,0
2016-12-04T06:16:27.183Z,0
2016-12-04T06:17:27.160Z,0
2016-12-04T06:18:27.137Z,0
2016-12-04T06:19:27.125Z,0
2016-12-04T06:20:27.097Z,0
2016-12-04T06:21:27.081Z,0
2016-12-04T06:22:27.059Z,0
2016-12-04T06:23:27.356Z,0
2016-12-04T06:24:27.022Z,0
2016-12-04T06:25:27.307Z,0
2016-12-04T06:26:26.977Z,0
2016-12-04T06:27:26.957Z,0
2016-12-04T06:28:26.935Z,0
2016-12-04T06:29:26.919Z,0
2016-12-04T06:30:26.896Z,0
2016-12-04T06:31:26.882Z,0
2016-12-04T06:32:26.851Z,0
2016-12-04T06:33:27.147Z,0
2016-12-04T06:34:27.127Z,0
2016-12-04T06:35:27.111Z,0
2016-12-04T06:36:26.770Z,0
2016-12-04T06:37:26.746Z,0
2016-12-04T06:38:26.746Z,0
2016-12-04T06:39:26.704Z,0
2016-12-04T06:40:26.694Z,0
2016-12-04T06:41:26.666Z,0
2016-12-04T06:42:26.653Z,0
2016-12-04T06:43:26.623Z,0
2016-12-04T06:44:26.607Z,0
2016-12-04T06:45:26.587Z,0
2016-12-04T06:46:26.880Z,0
2016-12-04T06:47:26.545Z,0
2016-12-04T06:48:26.528Z,0
2016-12-04T06:49:26.502Z,0
2016-12-04T06:50:26.481Z,5
2016-12-04T06:51:26.458Z,5
2016-12-04T06:52:26.441Z,5
2016-12-04T06:53:26.423Z,5
2016-12-04T06:54:26.408Z,5
2016-12-04T06:55:26.376Z,5
2016-12-04T06:56:26.362Z,5
2016-12-04T06:57:26.339Z,5
2016-12-04T06:58:26.321Z,5
2016-12-04T06:59:26.296Z,5
2016-12-04T07:00:26.279Z,10
2016-12-04T07:01:26.255Z,10
2016-12-04T07:02:26.238Z,10
2016-12-04T07:03:26.222Z,10
2016-12-04T07:04:26.195Z,10
2016-12-04T07:05:26.177Z,10
2016-12-04T07:06:26.159Z,15
2016-12-04T07:07:26.132Z,15
2016-12-04T07:08:26.111Z,15
2016-12-04T07:09:26.094Z,15
2016-12-04T07:10:26.071Z,15
2016-12-04T07:11:26.049Z,15
2016-12-04T07:12:26.031Z,20
2016-12-04T07:13:26.010Z,20
2016-12-04T07:14:25.989Z,20
2016-12-04T07:15:25.965Z,20
2016-12-04T07:16:25.951Z,25
2016-12-04T07:17:25.924Z,25
2016-12-04T07:18:25.908Z,25
2016-12-04T07:19:25.888Z,30
2016-12-04T07:20:25.863Z,30
2016-12-04T07:21:25.847Z,30
2016-12-04T07:22:25.827Z,35
2016-12-04T07:23:26.116Z,35
2016-12-04T07:24:25.786Z,35
2016-12-04T07:25:25.762Z,35
2016-12-04T07:26:25.741Z,35
2016-12-04T07:27:25.752Z,40
2016-12-04T07:28:25.706Z,40
2016-12-04T07:29:25.683Z,40
2016-12-04T07:30:25.679Z,40
2016-12-04T07:31:25.644Z,45
2016-12-04T07:32:25.621Z,45
2016-12-04T07:33:25.600Z,45
2016-12-04T07:34:25.606Z,45
2016-12-04T07:35:25.557Z,45
2016-12-04T07:36:25.536Z,45
2016-12-04T07:37:25.526Z,45
2016-12-04T07:38:25.494Z,50
2016-12-04T07:39:25.475Z,50
2016-12-04T07:40:25.457Z,50
2016-12-04T07:41:25.435Z,50
2016-12-04T07:42:25.729Z,50
2016-12-04T07:43:25.395Z,50
2016-12-04T07:44:25.403Z,55
2016-12-04T07:45:25.352Z,55
2016-12-04T07:46:25.331Z,55
2016-12-04T07:47:25.313Z,55
2016-12-04T07:48:25.293Z,55
2016-12-04T07:49:25.277Z,60
2016-12-04T07:50:25.569Z,60
2016-12-04T07:51:25.232Z,60
2016-12-04T07:52:25.211Z,60
2016-12-04T07:53:25.196Z,60
2016-12-04T07:54:25.174Z,65
2016-12-04T07:55:25.161Z,65
2016-12-04T07:56:25.136Z,65
2016-12-04T07:57:25.116Z,70
2016-12-04T07:58:25.092Z,70
2016-12-04T07:59:25.072Z,70
2016-12-04T08:00:25.052Z,70
2016-12-04T08:01:25.033Z,75
2016-12-04T08:02:25.015Z,75
2016-12-04T08:03:25.016Z,75
2016-12-04T08:04:24.979Z,75
2016-12-04T08:05:24.949Z,75
2016-12-04T08:06:24.933Z,75
2016-12-04T08:07:24.917Z,75
2016-12-04T08:08:24.892Z,75
2016-12-04T08:09:24.874Z,70
2016-12-04T08:10:24.854Z,70
2016-12-04T08:11:24.834Z,70
2016-12-04T08:12:24.817Z,70
2016-12-04T08:13:24.797Z,70
2016-12-04T08:14:24.773Z,65
2016-12-04T08:15:24.766Z,65
2016-12-04T08:16:24.743Z,65
2016-12-04T08:17:24.713Z,70
2016-12-04T08:18:24.710Z,70
2016-12-04T08:19:24.676Z,70
2016-12-04T08:20:24.660Z,70
2016-12-04T08:21:24.644Z,75
2016-12-04T08:22:24.622Z,75
2016-12-04T08:23:24.598Z,75
2016-12-04T08:24:24.583Z,80
2016-12-04T08:25:24.560Z,80
2016-12-04T08:26:24.541Z,80
2016-12-04T08:27:24.526Z,80
2016-12-04T08:28:24.498Z,80
2016-12-04T08:29:24.481Z,80
2016-12-04T08:30:24.458Z,80
2016-12-04T08:31:24.472Z,80
2016-12-04T08:32:24.432Z,80
2016-12-04T08:33:24.407Z,80
2016-12-04T08:34:24.383Z,80
2016-12-04T08:35:24.360Z,80
2016-12-04T08:36:24.343Z,80
2016-12-04T08:37:24.319Z,80
2016-12-04T08:38:24.306Z,80
2016-12-04T08:39:24.285Z,80
2016-12-04T08:40:24.291Z,80
2016-12-04T08:41:24.253Z,80
2016-12-04T08:42:24.236Z,80
2016-12-04T08:43:24.204Z,80
2016-12-04T08:44:24.186Z,80
2016-12-04T08:45:24.375Z,80
2016-12-04T08:46:24.159Z,80
2016-12-04T08:47:24.130Z,80
2016-12-04T08:48:24.118Z,80
2016-12-04T08:49:24.094Z,80
2016-12-04T08:50:24.100Z,80
2016-12-04T08:51:24.059Z,80
2016-12-04T08:52:24.034Z,80
2016-12-04T08:53:24.014Z,80
2016-12-04T08:54:23.992Z,80
2016-12-04T08:55:23.975Z,80
2016-12-04T08:56:24.277Z,85
2016-12-04T08:57:23.935Z,85
2016-12-04T08:58:23.915Z,85
2016-12-04T08:59:23.901Z,85
2016-12-04T09:00:23.879Z,85
2016-12-04T09:01:23.860Z,85
2016-12-04T09:02:23.839Z,85
2016-12-04T09:03:23.819Z,90
2016-12-04T09:04:23.800Z,90
2016-12-04T09:05:23.781Z,90
2016-12-04T09:06:23.766Z,90
2016-12-04T09:07:23.750Z,90
2016-12-04T09:08:23.728Z,90
2016-12-04T09:09:24.032Z,90
2016-12-04T09:10:23.689Z,90
2016-12-04T09:11:23.670Z,90
2016-12-04T09:12:23.649Z,90
2016-12-04T09:13:23.630Z,95
2016-12-04T09:14:23.613Z,95
2016-12-04T09:15:23.617Z,100
2016-12-04T09:16:23.570Z,100
2016-12-04T09:17:23.550Z,100
2016-12-04T09:18:23.533Z,105
2016-12-04T09:19:23.512Z,105
2016-12-04T09:20:23.493Z,105
2016-12-04T09:21:23.489Z,110
2016-12-04T09:22:23.460Z,110
2016-12-04T09:23:23.440Z,110
2016-12-04T09:24:23.416Z,110
2016-12-04T09:25:23.400Z,110
2016-12-04T09:26:23.412Z,110
2016-12-04T09:27:23.362Z,110
2016-12-04T09:28:23.370Z,110
2016-12-04T09:29:23.325Z,110
2016-12-04T09:30:23.301Z,110
2016-12-04T09:31:23.292Z,110
2016-12-04T09:32:23.276Z,110
2016-12-04T09:33:23.256Z,110
2016-12-04T09:34:23.297Z,115
2016-12-04T09:35:23.478Z,115
2016-12-04T09:36:23.196Z,115
2016-12-04T09:37:23.454Z,120
2016-12-04T09:38:23.160Z,120
2016-12-04T09:39:23.139Z,120
2016-12-04T09:40:23.121Z,120
2016-12-04T09:41:23.105Z,125
2016-12-04T09:42:23.088Z,125
2016-12-04T09:43:23.090Z,125
2016-12-04T09:44:23.047Z,130
2016-12-04T09:45:23.030Z,130
2016-12-04T09:46:23.010Z,130
2016-12-04T09:47:22.991Z,130
2016-12-04T09:48:22.975Z,135
2016-12-04T09:49:22.951Z,135
2016-12-04T09:50:22.935Z,135
2016-12-04T09:51:22.919Z,135
2016-12-04T09:52:22.897Z,140
2016-12-04T09:53:22.883Z,140
2016-12-04T09:54:22.864Z,140
2016-12-04T09:55:22.847Z,140
2016-12-04T09:56:22.824Z,140
2016-12-04T09:57:22.812Z,140
2016-12-04T09:58:22.797Z,140
2016-12-04T09:59:22.781Z,140
2016-12-04T10:00:22.757Z,140
2016-12-04T10:01:22.735Z,140
2016-12-04T10:02:22.718Z,135
2016-12-04T10:03:22.700Z,135
2016-12-04T10:04:22.680Z,130
2016-12-04T10:05:22.660Z,125
2016-12-04T10:06:22.654Z,120
2016-12-04T10:07:22.655Z,120
2016-12-04T10:08:22.622Z,115
2016-12-04T10:09:22.593Z,110
2016-12-04T10:10:22.886Z,105
2016-12-04T10:11:22.557Z,100
2016-12-04T10:12:22.541Z,100
2016-12-04T10:13:22.524Z,100
2016-12-04T10:14:22.504Z,100
2016-12-04T10:15:22.486Z,100
2016-12-04T10:16:22.479Z,100
2016-12-04T10:17:22.453Z,100
2016-12-04T10:18:22.461Z,100
2016-12-04T10:19:22.419Z,100
2016-12-04T10:20:22.400Z,100
2016-12-04T10:21:22.384Z,100
2016-12-04T10:22:22.367Z,100
2016-12-04T10:23:22.347Z,100
2016-12-04T10:24:22.329Z,95
2016-12-04T10:25:22.309Z,95
2016-12-04T10:26:22.295Z,95
2016-12-04T10:27:22.273Z,95
2016-12-04T10:28:22.260Z,90
2016-12-04T10:29:22.254Z,90
2016-12-04T10:30:22.225Z,90
2016-12-04T10:31:22.203Z,90
2016-12-04T10:32:22.187Z,90
2016-12-04T10:33:22.168Z,90
2016-12-04T10:34:22.153Z,90
2016-12-04T10:35:22.139Z,90
2016-12-04T10:36:22.116Z,90
2016-12-04T10:37:22.098Z,90
2016-12-04T10:38:22.082Z,90
2016-12-04T10:39:22.064Z,95
2016-12-04T10:40:22.048Z,95
2016-12-04T10:41:22.031Z,95
2016-12-04T10:42:22.017Z,95
2016-12-04T10:43:21.995Z,95
2016-12-04T10:44:21.981Z,95
2016-12-04T10:45:21.958Z,100
2016-12-04T10:46:21.951Z,100
2016-12-04T10:47:21.922Z,100
2016-12-04T10:48:21.908Z,100
2016-12-04T10:49:21.894Z,100
2016-12-04T10:50:21.870Z,100
2016-12-04T10:51:21.884Z,100
2016-12-04T10:52:21.844Z,100
2016-12-04T10:53:21.823Z,100
2016-12-04T10:54:21.808Z,100
2016-12-04T10:55:21.788Z,100
2016-12-04T10:56:21.777Z,95
2016-12-04T10:57:21.780Z,95
2016-12-04T10:58:21.739Z,95
2016-12-04T10:59:21.720Z,95
2016-12-04T11:00:21.727Z,95
2016-12-04T11:01:21.684Z,95
2016-12-04T11:02:21.665Z,95
2016-12-04T11:03:21.652Z,95
2016-12-04T11:04:21.630Z,95
2016-12-04T11:05:21.618Z,95
2016-12-04T11:06:21.597Z,95
2016-12-04T11:07:21.585Z,95
2016-12-04T11:08:21.563Z,90
2016-12-04T11:09:21.547Z,90
2016-12-04T11:10:21.555Z,90
2016-12-04T11:11:21.512Z,90
2016-12-04T11:12:21.493Z,90
2016-12-04T11:13:21.483Z,90
2016-12-04T11:14:21.780Z,90
2016-12-04T11:15:21.447Z,90
2016-12-04T11:16:21.457Z,90
2016-12-04T11:17:21.411Z,90
2016-12-04T11:18:21.405Z,90
2016-12-04T11:19:21.384Z,90
2016-12-04T11:20:21.376Z,90
2016-12-04T11:21:21.346Z,90
2016-12-04T11:22:21.325Z,90
2016-12-04T11:23:21.310Z,90
2016-12-04T11:24:21.294Z,90
2016-12-04T11:25:21.279Z,90
2016-12-04T11:26:21.261Z,90
2016-12-04T11:27:21.240Z,90
2016-12-04T11:28:21.534Z,90
2016-12-04T11:29:21.214Z,90
2016-12-04T11:30:21.188Z,90
2016-12-04T11:31:21.172Z,90
2016-12-04T11:32:21.156Z,90
2016-12-04T11:33:21.133Z,90
2016-12-04T11:34:21.443Z,90
2016-12-04T11:35:21.103Z,90
2016-12-04T11:36:21.091Z,85
2016-12-04T11:37:21.071Z,85
2016-12-04T11:38:21.055Z,85
2016-12-04T11:39:21.043Z,85
2016-12-04T11:40:21.017Z,85
2016-12-04T11:41:21.004Z,90
2016-12-04T11:42:20.988Z,90
2016-12-04T11:43:20.971Z,90
2016-12-04T11:44:20.998Z,90
2016-12-04T11:45:20.933Z,90
2016-12-04T11:46:20.919Z,90
2016-12-04T11:47:20.904Z,90
2016-12-04T11:48:20.884Z,90
2016-12-04T11:49:20.870Z,90
2016-12-04T11:50:20.853Z,90
2016-12-04T11:51:20.837Z,90
2016-12-04T11:52:20.821Z,90
2016-12-04T11:53:20.803Z,90
2016-12-04T11:54:20.792Z,90
2016-12-04T11:55:20.767Z,90
2016-12-04T11:56:20.753Z,90
2016-12-04T11:57:20.736Z,90
2016-12-04T11:58:20.720Z,85
2016-12-04T11:59:20.707Z,85
2016-12-04T12:00:20.688Z,85
2016-12-04T12:01:20.674Z,85
2016-12-04T12:02:20.666Z,85
2016-12-04T12:03:20.671Z,80
2016-12-04T12:04:20.648Z,80
2016-12-04T12:05:20.606Z,80
2016-12-04T12:06:20.608Z,80
2016-12-04T12:07:20.573Z,80
2016-12-04T12:08:20.560Z,80
2016-12-04T12:09:20.567Z,80
2016-12-04T12:10:20.527Z,80
2016-12-04T12:11:20.506Z,80
2016-12-04T12:12:20.498Z,80
2016-12-04T12:13:20.474Z,80
2016-12-04T12:14:20.456Z,80
2016-12-04T12:15:20.443Z,80
2016-12-04T12:16:20.426Z,80
2016-12-04T12:17:20.415Z,80
2016-12-04T12:18:20.404Z,80
2016-12-04T12:19:20.378Z,80
2016-12-04T12:20:20.508Z,80
2016-12-04T12:21:20.347Z,80
2016-12-04T12:22:20.640Z,80
2016-12-04T12:23:20.315Z,80
2016-12-04T12:24:20.299Z,80
2016-12-04T12:25:20.600Z,80
2016-12-04T12:26:20.268Z,80
2016-12-04T12:27:20.254Z,80
2016-12-04T12:28:20.244Z,80
2016-12-04T12:29:20.219Z,80
2016-12-04T12:30:20.205Z,80
2016-12-04T12:31:20.495Z,85
2016-12-04T12:32:20.168Z,85
2016-12-04T12:33:20.149Z,85
2016-12-04T12:34:20.132Z,85
2016-12-04T12:35:20.427Z,85
2016-12-04T12:36:20.096Z,85
2016-12-04T12:37:20.085Z,85
2016-12-04T12:38:20.073Z,85
2016-12-04T12:39:20.048Z,85
2016-12-04T12:40:20.033Z,85
2016-12-04T12:41:20.017Z,85
2016-12-04T12:42:20.017Z,85
2016-12-04T12:43:19.988Z,85
2016-12-04T12:44:19.969Z,85
2016-12-04T12:45:19.953Z,85
2016-12-04T12:46:19.936Z,85
2016-12-04T12:47:19.921Z,85
2016-12-04T12:48:19.908Z,90
2016-12-04T12:49:20.205Z,90
2016-12-04T12:50:19.875Z,90
2016-12-04T12:51:19.855Z,90
2016-12-04T12:52:19.845Z,90
2016-12-04T12:53:19.820Z,90
2016-12-04T12:54:19.844Z,85
2016-12-04T12:55:19.798Z,85
2016-12-04T12:56:19.775Z,85
2016-12-04T12:57:19.766Z,85
2016-12-04T12:58:19.754Z,85
2016-12-04T12:59:19.739Z,85
2016-12-04T13:00:19.710Z,85
2016-12-04T13:01:19.696Z,85
2016-12-04T13:02:19.681Z,90
2016-12-04T13:03:19.665Z,90
2016-12-04T13:04:19.653Z,90
2016-12-04T13:05:19.943Z,90
2016-12-04T13:06:19.616Z,90
2016-12-04T13:07:19.601Z,90
2016-12-04T13:08:19.604Z,90
2016-12-04T13:09:19.568Z,90
2016-12-04T13:10:19.550Z,90
2016-12-04T13:11:19.535Z,90
2016-12-04T13:12:19.516Z,90
2016-12-04T13:13:19.502Z,85
2016-12-04T13:14:19.515Z,85
2016-12-04T13:15:19.489Z,85
2016-12-04T13:16:19.457Z,85
2016-12-04T13:17:19.438Z,80
2016-12-04T13:18:19.423Z,80
2016-12-04T13:19:19.405Z,80
2016-12-04T13:20:19.386Z,80
2016-12-04T13:21:19.370Z,80
2016-12-04T13:22:19.355Z,80
2016-12-04T13:23:19.337Z,80
2016-12-04T13:24:19.323Z,80
2016-12-04T13:25:19.626Z,85
2016-12-04T13:26:19.296Z,85
2016-12-04T13:27:19.278Z,80
2016-12-04T13:28:19.265Z,80
2016-12-04T13:29:19.246Z,80
2016-12-04T13:30:19.226Z,80
2016-12-04T13:31:19.218Z,80
2016-12-04T13:32:19.191Z,80
2016-12-04T13:33:19.173Z,80
2016-12-04T13:34:19.163Z,80
2016-12-04T13:35:19.148Z,80
2016-12-04T13:36:19.128Z,80
2016-12-04T13:37:19.108Z,80
2016-12-04T13:38:19.100Z,80
2016-12-04T13:39:19.093Z,80
2016-12-04T13:40:19.383Z,80
2016-12-04T13:41:19.046Z,80
2016-12-04T13:42:19.030Z,80
2016-12-04T13:43:19.341Z,80
2016-12-04T13:44:18.996Z,80
2016-12-04T13:45:18.985Z,80
2016-12-04T13:46:18.968Z,80
2016-12-04T13:47:18.949Z,80
2016-12-04T13:48:18.930Z,80
2016-12-04T13:49:18.913Z,80
2016-12-04T13:50:18.900Z,80
2016-12-04T13:51:18.888Z,80
2016-12-04T13:52:18.867Z,80
2016-12-04T13:53:18.852Z,80
2016-12-04T13:54:18.835Z,80
2016-12-04T13:55:18.816Z,80
2016-12-04T13:56:19.113Z,75
2016-12-04T13:57:18.784Z,75
2016-12-04T13:58:18.773Z,75
2016-12-04T13:59:18.756Z,75
2016-12-04T14:00:18.739Z,75
2016-12-04T14:01:18.717Z,75
2016-12-04T14:02:18.701Z,70
2016-12-04T14:03:18.685Z,70
2016-12-04T14:04:18.666Z,70
2016-12-04T14:05:18.655Z,70
2016-12-04T14:06:18.638Z,70
2016-12-04T14:07:18.937Z,65
2016-12-04T14:08:18.603Z,65
2016-12-04T14:09:18.588Z,65
2016-12-04T14:10:18.569Z,65
2016-12-04T14:11:18.581Z,65
2016-12-04T14:12:18.537Z,65
2016-12-04T14:13:18.522Z,60
2016-12-04T14:14:18.511Z,60
2016-12-04T14:15:18.494Z,60
2016-12-04T14:16:18.478Z,60
2016-12-04T14:17:18.459Z,60
2016-12-04T14:18:18.441Z,55
2016-12-04T14:19:18.425Z,55
2016-12-04T14:20:18.408Z,55
2016-12-04T14:21:18.392Z,55
2016-12-04T14:22:18.380Z,55
2016-12-04T14:23:18.360Z,50
2016-12-04T14:24:18.348Z,50
2016-12-04T14:25:18.326Z,50
2016-12-04T14:26:18.309Z,50
2016-12-04T14:27:18.294Z,45